Time;durP1;ratioP1;P1;durP2;ratioP2;P2;SDS_P1;SDS_P2;PMS_P1;PMS_P2;Temp;Humidity;BMP_temperature;BMP_pressure;BME280_temperature;BME280_humidity;BME280_pressure;Samples;Min_cycle;Max_cycle;Signal;HPM_P1;HPM_P2
2023/01/24 00:08:55;;;;;;;45.00;16.37;;;;;;;1.03;88.71;102346.10;127982;1089;102598;-76
2023/01/24 00:11:24;;;;;;;41.50;16.00;;;;;;;1.03;88.21;102353.86;127848;1089;102625;-77
2023/01/24 00:13:52;;;;;;;46.13;16.00;;;;;;;1.02;88.18;102352.02;127977;1089;101781;-77
2023/01/24 00:34:24;;;;;;;40.43;13.83;;;;;;;0.98;87.75;102348.95;126499;1088;971265;-78
2023/01/24 00:36:52;;;;;;;38.90;14.43;;;;;;;0.98;87.89;102351.54;127728;1089;102422;-78
2023/01/24 00:39:21;;;;;;;40.30;14.33;;;;;;;0.93;87.81;102356.23;127676;1089;101710;-78
2023/01/24 00:44:22;;;;;;;36.17;15.03;;;;;;;0.92;87.67;102354.42;127973;1089;102870;-77
2023/01/24 00:46:53;;;;;;;36.47;15.10;;;;;;;0.92;88.13;102359.59;127032;1089;101987;-77
2023/01/24 00:49:22;;;;;;;38.17;15.73;;;;;;;0.92;87.77;102353.48;127199;1093;104245;-78
2023/01/24 00:51:50;;;;;;;37.83;14.57;;;;;;;0.97;88.17;102357.48;127894;1089;102277;-78
2023/01/24 00:54:19;;;;;;;39.90;14.87;;;;;;;0.99;87.59;102356.88;127450;1089;102153;-78
2023/01/24 00:56:47;;;;;;;33.67;13.50;;;;;;;1.01;87.64;102359.61;127766;1089;102438;-77
2023/01/24 00:59:21;;;;;;;37.05;14.45;;;;;;;1.03;87.80;102358.13;127576;1089;102924;31
2023/01/24 01:20:55;;;;;;;39.80;15.47;;;;;;;1.03;87.75;102359.03;126463;1092;102324;-78
2023/01/24 01:29:34;;;;;;;38.57;14.83;;;;;;;1.14;87.87;102361.79;125680;1102;103425;-77
2023/01/24 01:32:05;;;;;;;40.27;15.47;;;;;;;1.15;87.46;102363.63;125406;1109;101790;-76
2023/01/24 01:34:37;;;;;;;45.97;16.77;;;;;;;1.14;87.49;102365.31;125407;1110;102697;-77
2023/01/24 01:58:05;;;;;;;38.73;14.50;;;;;;;0.96;87.00;102369.48;125016;1108;104261;-79
2023/01/24 02:00:34;;;;;;;34.97;14.50;;;;;;;0.91;86.99;102364.61;125075;1108;101776;-79
2023/01/24 02:05:57;;;;;;;38.53;15.03;;;;;;;0.89;86.69;102359.27;125307;1108;107113;-79
2023/01/24 02:11:39;;;;;;;35.83;14.23;;;;;;;0.95;87.73;102358.98;125812;1102;102616;-77
2023/01/24 02:29:31;;;;;;;36.63;13.27;;;;;;;0.94;87.32;102355.48;127182;1089;967830;-76
2023/01/24 02:44:15;;;;;;;33.27;13.80;;;;;;;1.12;87.25;102359.05;125677;1102;101740;-77
2023/01/24 02:46:47;;;;;;;40.77;14.70;;;;;;;1.07;87.10;102353.39;125633;1103;102074;-75
2023/01/24 02:49:18;;;;;;;41.93;15.20;;;;;;;1.05;87.64;102342.00;125893;1105;102808;-76
2023/01/24 02:54:39;;;;;;;34.23;13.83;;;;;;;1.03;86.98;102360.71;125970;1096;102946;-79
2023/01/24 02:59:59;;;;;;;34.13;14.33;;;;;;;1.00;87.11;102363.88;125980;1096;102047;-79
2023/01/24 03:05:39;;;;;;;34.17;13.33;;;;;;;1.02;87.31;102352.02;126330;1097;110081;-77
2023/01/24 03:08:11;;;;;;;37.90;14.70;;;;;;;1.02;87.35;102346.84;125642;1099;102898;-78
2023/01/24 03:10:42;;;;;;;34.13;13.33;;;;;;;1.00;86.94;102347.47;125858;1099;102318;-77
2023/01/24 03:36:21;;;;;;;32.87;12.77;;;;;;;0.80;87.24;102347.97;124658;1109;104192;-77
2023/01/24 03:41:46;;;;;;;31.97;13.83;;;;;;;0.76;87.22;102354.47;124969;1108;102078;-78
2023/01/24 03:53:27;;;;;;;33.43;15.00;;;;;;;0.97;87.24;102347.15;126935;1099;102740;31
2023/01/24 03:56:00;;;;;;;29.40;12.87;;;;;;;0.97;87.14;102345.47;125351;1105;104246;-78
2023/01/24 03:58:33;;;;;;;34.18;13.75;;;;;;;0.97;86.89;102347.15;125561;1105;101804;-77
2023/01/24 04:01:06;;;;;;;30.97;13.72;;;;;;;0.94;86.83;102352.00;125270;1105;102121;-77
2023/01/24 04:35:44;;;;;;;33.40;12.97;;;;;;;0.92;87.74;102356.08;126749;1096;104015;-77
2023/01/24 04:59:06;;;;;;;28.70;12.20;;;;;;;1.06;88.34;102368.75;125143;1097;101936;-77
2023/01/24 05:01:38;;;;;;;30.97;12.97;;;;;;;1.04;87.77;102373.80;124664;1105;102224;-77
2023/01/24 05:04:15;;;;;;;32.40;13.65;;;;;;;1.05;88.02;102374.70;124465;1105;102141;-77
2023/01/24 05:06:47;;;;;;;31.00;12.60;;;;;;;1.06;88.47;102374.86;124884;1105;103959;-81
2023/01/24 05:09:18;;;;;;;34.43;13.00;;;;;;;1.07;88.65;102376.66;124681;1105;104310;-81
2023/01/24 05:12:03;;;;;;;31.20;13.77;;;;;;;1.06;88.28;102382.62;124558;1105;101811;-78
2023/01/24 05:14:34;;;;;;;33.10;12.93;;;;;;;0.97;88.59;102373.00;124218;1105;104182;-78
2023/01/24 05:17:10;;;;;;;31.70;13.37;;;;;;;0.93;88.42;102374.33;124633;1105;104251;-79
2023/01/24 05:19:41;;;;;;;34.90;12.77;;;;;;;0.89;88.77;102372.20;124583;1105;101929;-81
2023/01/24 05:22:13;;;;;;;29.83;13.07;;;;;;;0.86;88.92;102374.46;124616;1105;104233;-80
2023/01/24 05:24:46;;;;;;;31.57;12.80;;;;;;;0.81;89.42;102375.63;124446;1105;104252;-78
2023/01/24 05:27:18;;;;;;;35.87;14.70;;;;;;;0.79;88.78;102374.56;124538;1105;102099;-78
2023/01/24 05:29:54;;;;;;;35.70;14.33;;;;;;;0.80;89.57;102377.31;124568;1106;101934;-77
2023/01/24 05:32:25;;;;;;;33.83;12.27;;;;;;;0.79;89.16;102369.39;124570;1105;102215;-78
2023/01/24 05:34:57;;;;;;;33.47;14.27;;;;;;;0.76;89.02;102369.07;124494;1106;104263;-79
2023/01/24 05:37:29;;;;;;;28.70;12.00;;;;;;;0.73;88.90;102376.50;124544;1106;102244;-77
2023/01/24 05:40:01;;;;;;;30.50;12.00;;;;;;;0.73;88.94;102382.57;124383;1105;104204;-78
2023/01/24 05:42:32;;;;;;;27.60;11.63;;;;;;;0.76;88.98;102382.89;124584;1105;104198;-78
2023/01/24 05:45:05;;;;;;;30.90;11.55;;;;;;;0.75;88.82;102378.50;124513;1105;104288;-78
2023/01/24 05:47:37;;;;;;;27.30;11.57;;;;;;;0.74;88.61;102383.52;124463;1105;102317;-77
2023/01/24 05:50:11;;;;;;;29.33;11.77;;;;;;;0.75;88.77;102391.42;124460;1105;103234;-77
2023/01/24 05:52:43;;;;;;;25.20;10.13;;;;;;;0.71;88.47;102386.67;124471;1105;104217;-78
2023/01/24 05:55:14;;;;;;;29.30;11.00;;;;;;;0.70;88.28;102383.19;124473;1105;102301;-77
2023/01/24 05:57:50;;;;;;;28.27;10.83;;;;;;;0.74;88.42;102381.83;124356;1105;102056;-78
2023/01/24 06:00:23;;;;;;;26.07;11.07;;;;;;;0.77;88.34;102389.00;124380;1105;108408;-78
2023/01/24 06:03:17;;;;;;;26.80;11.17;;;;;;;0.80;88.54;102386.74;124724;1105;102179;-77
2023/01/24 06:05:51;;;;;;;23.20;9.43;;;;;;;0.80;88.37;102397.08;124585;1106;104198;-76
2023/01/24 06:08:23;;;;;;;23.63;9.23;;;;;;;0.80;88.31;102391.91;124571;1105;101984;-76
2023/01/24 06:10:54;;;;;;;24.03;9.07;;;;;;;0.82;88.20;102398.14;124550;1105;102125;-77
2023/01/24 06:13:27;;;;;;;26.00;9.90;;;;;;;0.85;88.13;102401.95;124529;1105;104675;-77
2023/01/24 06:16:06;;;;;;;24.07;9.43;;;;;;;0.83;88.35;102394.81;124832;1105;104083;-80
2023/01/24 06:18:37;;;;;;;24.17;9.67;;;;;;;0.76;88.02;102400.08;124849;1106;102036;-77
2023/01/24 06:21:27;;;;;;;;;;;;;;;0.68;88.50;102394.10;124559;1105;104249;-79
2023/01/24 06:24:00;;;;;;;23.07;9.63;;;;;;;0.63;88.15;102393.61;124794;1106;104341;-78
2023/01/24 06:26:44;;;;;;;26.07;10.80;;;;;;;0.66;88.62;102391.36;124554;1105;102475;-78
2023/01/24 06:29:17;;;;;;;29.70;11.90;;;;;;;0.72;88.38;102391.10;124538;1105;104169;-78
2023/01/24 06:32:01;;;;;;;27.55;11.60;;;;;;;0.78;88.66;102394.33;124535;1105;104284;-79
2023/01/24 06:34:45;;;;;;;28.45;12.07;;;;;;;0.79;88.44;102390.06;124668;1105;104297;-79
2023/01/24 06:40:13;;;;;;;22.07;8.33;;;;;;;0.85;88.81;102393.30;124778;1109;102881;-76
2023/01/24 06:42:46;;;;;;;26.33;9.43;;;;;;;0.84;88.69;102391.45;125663;1108;102224;-77
2023/01/24 06:45:19;;;;;;;21.80;9.27;;;;;;;0.81;88.63;102393.72;125645;1108;101667;-76
2023/01/24 06:47:51;;;;;;;23.27;9.17;;;;;;;0.79;88.44;102397.82;125650;1108;102003;-76
2023/01/24 06:50:25;;;;;;;23.63;10.00;;;;;;;0.82;88.63;102388.70;125614;1109;104190;-78
2023/01/24 06:52:59;;;;;;;29.70;11.03;;;;;;;0.88;88.84;102394.52;125607;1108;102303;-79
2023/01/24 06:55:32;;;;;;;24.03;10.10;;;;;;;0.95;88.52;102398.69;124767;1109;102900;-78
2023/01/24 06:58:05;;;;;;;26.70;10.50;;;;;;;0.95;88.75;102405.51;124540;1108;104188;-80
2023/01/24 07:00:38;;;;;;;26.23;10.73;;;;;;;0.95;88.82;102402.92;124960;1109;102493;-78
2023/01/24 07:03:13;;;;;;;27.90;11.05;;;;;;;0.96;88.76;102402.17;124780;1108;102847;-81
2023/01/24 07:05:46;;;;;;;23.97;10.30;;;;;;;1.02;88.84;102403.73;124643;1109;102288;-77
2023/01/24 07:08:21;;;;;;;24.73;10.20;;;;;;;1.02;88.66;102403.73;124694;1109;102441;-77
2023/01/24 07:10:52;;;;;;;24.67;9.97;;;;;;;1.00;88.41;102391.42;124451;1109;103782;-77
2023/01/24 07:13:27;;;;;;;25.53;9.93;;;;;;;1.08;88.59;102408.63;124497;1109;102273;-76
2023/01/24 07:16:04;;;;;;;28.13;10.30;;;;;;;1.06;89.23;102400.72;124498;1109;102739;-78
2023/01/24 07:18:39;;;;;;;23.60;10.40;;;;;;;1.09;88.26;102394.92;124582;1108;102515;-77
2023/01/24 07:21:13;;;;;;;26.97;10.50;;;;;;;1.15;88.86;102395.56;124424;1109;102791;-76
2023/01/24 07:23:46;;;;;;;;;;;;;;;1.14;88.98;102397.99;124467;1109;104287;-79
2023/01/24 07:26:20;;;;;;;26.87;10.87;;;;;;;1.12;88.60;102394.34;124522;1109;103894;-79
2023/01/24 07:29:06;;;;;;;25.50;11.65;;;;;;;1.06;88.22;102395.55;124576;1109;104322;-78
2023/01/24 07:31:39;;;;;;;29.27;12.30;;;;;;;1.11;88.86;102397.67;124323;1109;102920;-79
2023/01/24 07:34:15;;;;;;;33.90;14.10;;;;;;;1.08;88.71;102395.70;124508;1109;102260;-79
2023/01/24 07:36:49;;;;;;;28.87;11.67;;;;;;;1.01;88.47;102396.75;124155;1109;103079;-77
2023/01/24 07:39:24;;;;;;;25.60;10.20;;;;;;;0.98;88.71;102396.42;124594;1108;102996;-77
2023/01/24 07:42:03;;;;;;;25.23;9.70;;;;;;;0.97;88.79;102394.58;124464;1109;102442;-76
2023/01/24 07:44:42;;;;;;;26.47;10.00;;;;;;;0.99;88.48;102400.82;124349;1108;102955;-75
2023/01/24 07:47:17;;;;;;;23.50;9.80;;;;;;;1.02;89.02;102403.73;124415;1109;102820;-76
2023/01/24 07:49:50;;;;;;;27.53;10.10;;;;;;;1.01;88.72;102404.50;124502;1109;102492;-77
2023/01/24 07:52:24;;;;;;;24.03;9.13;;;;;;;1.07;88.83;102407.69;124467;1108;102958;-80
2023/01/24 07:54:58;;;;;;;24.37;9.80;;;;;;;1.09;89.33;102405.27;124661;1109;102729;-75
2023/01/24 07:57:30;;;;;;;25.50;10.00;;;;;;;1.12;88.50;102400.41;124474;1108;102490;-75
2023/01/24 08:00:02;;;;;;;26.17;10.07;;;;;;;1.14;88.69;102401.52;124527;1108;103365;-78
2023/01/24 08:02:44;;;;;;;25.47;9.83;;;;;;;1.19;88.68;102400.31;124627;1109;102858;-77
2023/01/24 08:05:17;;;;;;;23.77;8.93;;;;;;;1.28;89.09;102400.36;124597;1109;102799;-75
2023/01/24 08:07:52;;;;;;;22.83;8.70;;;;;;;1.25;87.77;102403.53;124440;1109;102724;-76
2023/01/24 08:10:25;;;;;;;23.83;9.03;;;;;;;1.18;87.74;102411.40;124596;1109;104159;-77
2023/01/24 08:12:57;;;;;;;25.70;8.93;;;;;;;1.13;87.98;102411.70;124546;1109;102938;-77
2023/01/24 08:15:29;;;;;;;24.50;9.10;;;;;;;1.09;87.68;102420.78;115850;1108;10001749;-78
2023/01/24 08:18:04;;;;;;;26.33;9.43;;;;;;;1.07;87.80;102412.86;124796;1106;104268;-74
2023/01/24 08:20:35;;;;;;;27.10;9.93;;;;;;;1.03;87.92;102417.59;116192;1108;10001775;-78
2023/01/24 08:23:07;;;;;;;25.20;8.83;;;;;;;0.98;87.96;102426.51;124490;1109;102579;-77
2023/01/24 08:25:43;;;;;;;27.60;10.23;;;;;;;0.96;88.06;102422.86;124504;1109;102992;-76
2023/01/24 08:28:16;;;;;;;26.55;9.60;;;;;;;0.95;87.28;102426.19;124373;1109;104113;-78
2023/01/24 08:30:48;;;;;;;23.50;8.93;;;;;;;0.93;87.62;102426.02;124535;1109;102744;-76
2023/01/24 08:33:20;;;;;;;26.53;9.43;;;;;;;0.95;87.84;102427.13;124448;1109;102599;-77
2023/01/24 08:35:52;;;;;;;29.13;10.20;;;;;;;0.99;87.87;102425.77;124447;1109;102650;-76
2023/01/24 08:38:25;;;;;;;;;;;;;;;1.00;87.66;102425.92;124460;1109;103314;-77
2023/01/24 08:41:03;;;;;;;26.97;10.53;;;;;;;0.99;86.87;102433.52;124509;1109;103217;-76
2023/01/24 08:43:37;;;;;;;26.30;8.83;;;;;;;0.93;84.62;102430.30;124414;1109;102156;-76
2023/01/24 08:46:26;;;;;;;23.40;9.33;;;;;;;0.89;86.29;102427.38;124676;1108;102148;-78
2023/01/24 08:49:01;;;;;;;26.20;9.83;;;;;;;0.92;86.11;102424.22;124621;1109;104235;-76
2023/01/24 08:51:38;;;;;;;24.97;9.50;;;;;;;0.93;85.88;102430.30;124300;1108;103515;-76
2023/01/24 08:54:11;;;;;;;25.17;8.73;;;;;;;0.92;85.83;102429.39;124652;1109;104201;-77
2023/01/24 08:56:43;;;;;;;24.50;10.20;;;;;;;0.94;85.91;102419.21;124418;1109;102429;-76
2023/01/24 08:59:17;;;;;;;26.30;9.80;;;;;;;0.96;86.16;102425.44;124414;1109;102965;-77
2023/01/24 09:01:51;;;;;;;26.87;10.05;;;;;;;0.98;86.75;102417.11;124476;1109;102075;-76
2023/01/24 09:04:26;;;;;;;;;;;;;;;0.97;85.79;102425.61;124494;1108;103173;-75
2023/01/24 09:06:57;;;;;;;;;;;;;;;0.94;85.32;102417.53;124452;1109;104304;-76
2023/01/24 09:09:30;;;;;;;25.30;9.73;;;;;;;0.94;85.51;102414.94;124528;1108;102839;-80
2023/01/24 09:12:02;;;;;;;26.07;9.80;;;;;;;0.91;84.37;102419.79;124411;1108;102381;-77
2023/01/24 09:14:34;;;;;;;30.27;11.17;;;;;;;0.89;85.46;102406.70;124434;1109;102903;-76
2023/01/24 09:17:07;;;;;;;24.83;10.20;;;;;;;0.89;85.83;102406.70;124295;1108;102141;-76
2023/01/24 09:19:39;;;;;;;27.80;11.13;;;;;;;0.91;85.99;102406.87;124331;1109;102875;-76
2023/01/24 09:22:14;;;;;;;26.67;9.30;;;;;;;0.94;85.60;102412.36;124206;1109;102671;-77
2023/01/24 09:24:46;;;;;;;28.80;10.00;;;;;;;0.92;85.14;102402.60;124574;1108;102551;-79
2023/01/24 09:27:21;;;;;;;27.03;10.07;;;;;;;0.90;84.83;102407.61;124577;1109;102337;-75
2023/01/24 09:29:57;;;;;;;25.17;10.67;;;;;;;0.87;85.10;102396.95;124463;1109;102184;-77
2023/01/24 09:32:29;;;;;;;30.30;10.93;;;;;;;0.89;85.61;102392.87;125110;1108;102836;-76
2023/01/24 09:35:03;;;;;;;27.93;11.03;;;;;;;0.92;85.20;102395.78;124502;1109;103399;-75
2023/01/24 09:37:36;;;;;;;27.60;10.53;;;;;;;0.85;84.59;102394.20;124438;1109;102829;-76
2023/01/24 09:40:19;;;;;;;28.83;12.10;;;;;;;0.79;84.87;102396.14;124518;1109;102900;-75
2023/01/24 09:43:02;;;;;;;30.57;13.13;;;;;;;0.77;85.54;102405.41;124479;1109;103144;-76
2023/01/24 09:45:43;;;;;;;35.50;12.53;;;;;;;0.67;84.87;102405.18;124552;1109;103132;-76
2023/01/24 09:48:18;;;;;;;29.30;12.80;;;;;;;0.61;84.94;102401.95;124612;1109;102656;-80
2023/01/24 09:50:57;;;;;;;32.27;14.00;;;;;;;0.58;85.32;102402.56;124377;1108;102883;-76
2023/01/24 09:53:38;;;;;;;31.93;13.30;;;;;;;0.56;85.05;102396.30;124413;1109;102866;-76
2023/01/24 09:56:26;;;;;;;28.40;12.85;;;;;;;0.57;85.46;102392.97;124269;1109;104188;-77
2023/01/24 09:59:14;;;;;;;36.97;14.10;;;;;;;0.64;85.92;102387.70;124452;1109;103541;-76
2023/01/24 10:01:52;;;;;;;31.93;13.93;;;;;;;0.78;86.25;102390.81;124724;1109;102733;-78
2023/01/24 10:04:38;;;;;;;30.57;12.67;;;;;;;0.77;85.63;102392.48;124393;1109;103412;-78
2023/01/24 10:07:49;;;;;;;27.90;12.43;;;;;;;0.78;86.11;102384.00;124538;1109;102466;-78
2023/01/24 10:10:33;;;;;;;26.23;10.80;;;;;;;0.82;84.80;102395.56;124319;1109;102956;-76
2023/01/24 10:13:28;;;;;;;27.63;10.03;;;;;;;0.71;83.87;102400.50;124448;1109;103887;-77
2023/01/24 10:16:12;;;;;;;30.07;9.77;;;;;;;0.62;83.71;102401.20;124434;1108;104198;-76
2023/01/24 10:18:58;;;;;;;28.20;10.97;;;;;;;0.56;84.24;102395.39;124428;1109;102071;-76
2023/01/24 10:22:00;;;;;;;28.50;12.07;;;;;;;0.58;84.85;102392.22;124369;1109;102818;-77
2023/01/24 10:24:42;;;;;;;29.70;13.23;;;;;;;0.64;85.37;102385.13;124540;1108;104198;-77
2023/01/24 10:27:26;;;;;;;28.05;11.45;;;;;;;0.72;85.38;102383.35;124464;1107;102665;-76
2023/01/24 10:30:14;;;;;;;30.23;12.83;;;;;;;0.70;84.82;102383.19;124550;1109;103312;-77
2023/01/24 10:32:50;;;;;;;30.00;12.37;;;;;;;0.64;84.78;102382.54;124443;1109;103869;-77
2023/01/24 10:35:31;;;;;;;37.47;16.20;;;;;;;0.57;84.41;102377.47;124564;1109;102366;-79
2023/01/24 10:38:14;;;;;;;36.87;17.27;;;;;;;0.51;85.25;102367.42;124506;1108;104185;-78
2023/01/24 10:40:54;;;;;;;38.67;18.80;;;;;;;0.43;84.82;102368.25;124403;1109;104037;-77
2023/01/24 10:43:31;;;;;;;39.23;18.03;;;;;;;0.40;85.40;102369.60;124435;1109;104351;-77
2023/01/24 10:46:26;;;;;;;39.23;17.87;;;;;;;0.42;85.77;102362.92;124584;1108;104239;-77
2023/01/24 10:48:57;;;;;;;;;;;;;;;0.41;84.83;102364.60;124394;1107;102550;-77
2023/01/24 10:51:30;;;;;;;34.53;15.83;;;;;;;0.43;84.76;102359.59;124751;1109;102628;-77
2023/01/24 10:54:05;;;;;;;33.73;15.17;;;;;;;0.37;82.05;102362.43;124677;1108;103384;-76
2023/01/24 10:56:44;;;;;;;32.87;16.40;;;;;;;0.31;82.54;102357.55;124237;1109;102387;-76
2023/01/24 10:59:18;;;;;;;34.17;14.93;;;;;;;0.22;81.35;102353.05;124382;1109;102510;-77
2023/01/24 11:01:50;;;;;;;33.08;13.35;;;;;;;0.15;80.96;102351.48;124489;1109;103069;-77
2023/01/24 11:04:28;;;;;;;32.63;14.60;;;;;;;0.18;82.79;102346.66;124791;1109;103199;-77
2023/01/24 11:07:03;;;;;;;30.73;15.17;;;;;;;0.23;82.06;102345.47;124532;1109;108018;-77
2023/01/24 11:09:36;;;;;;;33.60;15.33;;;;;;;0.36;83.39;102337.38;124669;1108;102323;-76
2023/01/24 11:12:16;;;;;;;35.13;15.83;;;;;;;0.50;83.18;102337.16;124638;1108;102593;-76
2023/01/24 11:14:50;;;;;;;37.77;16.40;;;;;;;0.56;82.25;102341.14;124951;1109;102193;-78
2023/01/24 11:17:36;;;;;;;31.50;14.83;;;;;;;0.57;81.53;102330.96;124924;1109;103630;-77
2023/01/24 11:20:26;;;;;;;31.87;14.83;;;;;;;0.57;82.01;102324.89;124710;1109;102728;-77
2023/01/24 11:23:12;;;;;;;32.00;15.33;;;;;;;0.62;82.49;102326.28;124713;1109;102746;-76
2023/01/24 11:25:56;;;;;;;32.50;14.83;;;;;;;0.64;80.82;102330.86;124651;1109;102732;-76
2023/01/24 11:28:31;;;;;;;31.27;14.85;;;;;;;0.73;81.81;102317.06;124724;1108;103250;-76
2023/01/24 11:31:09;;;;;;;32.40;15.80;;;;;;;0.83;81.89;102327.62;124670;1109;102396;-76
2023/01/24 11:34:01;;;;;;;33.47;16.67;;;;;;;0.89;81.60;102320.50;116138;1109;10001448;-75
2023/01/24 11:36:46;;;;;;;32.67;15.10;;;;;;;0.85;80.77;102326.09;116059;1109;10001688;-77
2023/01/24 11:39:32;;;;;;;34.40;15.40;;;;;;;0.80;80.95;102315.28;124535;1108;102931;-75
2023/01/24 11:42:19;;;;;;;32.73;15.23;;;;;;;0.79;80.66;102316.02;124724;1109;102623;-75
2023/01/24 11:45:27;;;;;;;29.40;13.43;;;;;;;0.71;78.21;102315.23;124556;1109;102913;-78
2023/01/24 11:48:14;;;;;;;29.20;13.37;;;;;;;0.60;77.81;102325.22;124387;1109;117850;-76
2023/01/24 11:51:06;;;;;;;34.53;13.57;;;;;;;0.58;78.57;102311.20;124399;1108;102211;-76
2023/01/24 11:54:08;;;;;;;29.43;13.40;;;;;;;0.61;79.33;102314.10;124502;1108;104172;-78
2023/01/24 11:57:07;;;;;;;28.50;13.60;;;;;;;0.63;79.50;102295.44;124523;1109;102803;-76
2023/01/24 11:59:58;;;;;;;30.87;14.10;;;;;;;0.73;79.36;102314.48;124642;1109;102272;-79
2023/01/24 12:02:57;;;;;;;30.07;13.23;;;;;;;0.75;79.21;102310.38;124686;1108;103305;-77
2023/01/24 12:05:43;;;;;;;30.77;13.00;;;;;;;0.70;78.20;102310.84;124566;1108;104213;-78
2023/01/24 12:08:33;;;;;;;28.87;12.63;;;;;;;0.65;77.56;102313.69;124718;1108;104221;-76
2023/01/24 12:11:13;;;;;;;29.10;13.10;;;;;;;0.56;76.89;102317.88;124651;1109;102426;-77
2023/01/24 12:13:56;;;;;;;26.90;12.73;;;;;;;0.41;77.33;102301.71;124538;1109;102085;-77
2023/01/24 12:16:43;;;;;;;26.73;11.07;;;;;;;0.41;77.26;102319.79;124467;1108;103031;-76
2023/01/24 12:22:44;;;;;;;30.80;13.77;;;;;;;0.08;77.14;102321.53;125090;1109;102908;-77
2023/01/24 12:25:25;;;;;;;31.70;14.93;;;;;;;-0.01;78.07;102325.70;124875;1108;102311;-76
2023/01/24 12:28:00;;;;;;;31.50;14.70;;;;;;;-0.03;77.46;102320.38;124743;1109;102626;-75
2023/01/24 12:30:39;;;;;;;34.83;14.97;;;;;;;-0.07;78.08;102314.73;124968;1109;102494;-77
2023/01/24 12:33:22;;;;;;;31.10;13.43;;;;;;;-0.02;78.57;102331.61;124712;1109;102477;-80
2023/01/24 12:35:58;;;;;;;29.67;13.20;;;;;;;-0.11;77.90;102326.39;124496;1109;104163;-76
2023/01/24 12:38:38;;;;;;;33.17;13.87;;;;;;;-0.22;78.43;102322.66;124392;1109;104326;-75
2023/01/24 12:41:25;;;;;;;32.33;13.27;;;;;;;-0.29;78.74;102325.31;124608;1109;101931;-76
2023/01/24 12:44:11;;;;;;;31.87;13.20;;;;;;;-0.30;78.39;102325.14;125093;1108;104302;-78
2023/01/24 12:46:52;;;;;;;30.90;13.13;;;;;;;-0.32;78.32;102324.98;124788;1108;102738;-76
2023/01/24 12:49:32;;;;;;;28.17;12.40;;;;;;;-0.34;77.92;102317.80;124729;1109;103242;-77
2023/01/24 12:52:17;;;;;;;37.83;14.40;;;;;;;-0.37;78.09;102323.57;124551;1109;104225;-77
2023/01/24 12:54:54;;;;;;;30.70;12.70;;;;;;;-0.38;78.15;102322.63;124574;1107;102240;-76
2023/01/24 12:57:32;;;;;;;30.17;12.40;;;;;;;-0.36;78.87;102322.80;124388;1108;104265;-76
2023/01/24 13:00:14;;;;;;;30.00;12.13;;;;;;;-0.27;79.04;102325.47;124407;1109;102959;-76
2023/01/24 13:03:04;;;;;;;33.63;13.43;;;;;;;-0.20;78.27;102326.30;124391;1108;102740;-75
2023/01/24 13:05:48;;;;;;;32.53;13.13;;;;;;;-0.23;78.32;102320.81;124610;1107;102290;-76
2023/01/24 13:08:31;;;;;;;32.90;13.13;;;;;;;-0.23;78.35;102325.07;124351;1109;103479;-76
2023/01/24 13:11:25;;;;;;;29.93;12.97;;;;;;;-0.28;78.96;102324.57;124269;1108;104230;-77
2023/01/24 13:14:08;;;;;;;30.90;12.10;;;;;;;-0.39;78.68;102320.83;124575;1109;102413;-76
2023/01/24 13:17:07;;;;;;;29.13;11.97;;;;;;;-0.46;78.15;102328.63;124415;1109;102055;-77
2023/01/24 13:20:02;;;;;;;31.10;12.53;;;;;;;-0.53;78.34;102328.73;124653;1109;103382;-77
2023/01/24 13:23:13;;;;;;;30.27;12.97;;;;;;;-0.60;78.51;102324.55;124380;1108;102046;-75
2023/01/24 13:26:44;;;;;;;34.03;13.03;;;;;;;-0.64;79.10;102319.82;125013;1109;104501;-78
2023/01/24 13:32:35;;;;;;;35.70;14.60;;;;;;;-0.55;79.25;102315.67;124907;1102;104281;-77
2023/01/24 13:35:19;;;;;;;32.90;13.57;;;;;;;-0.48;79.12;102313.73;124794;1105;103351;-77
2023/01/24 13:37:54;;;;;;;;;;;;;;;-0.48;79.46;102311.14;125048;1102;103434;-76
2023/01/24 13:40:34;;;;;;;31.30;12.93;;;;;;;-0.50;79.85;102308.41;125054;1102;101976;-76
2023/01/24 13:43:58;;;;;;;35.20;14.50;;;;;;;-0.51;79.22;102306.59;125976;1101;102710;-76
2023/01/24 13:47:05;;;;;;;34.27;14.70;;;;;;;-0.45;79.42;102307.27;124568;1106;103036;-76
2023/01/24 13:49:45;;;;;;;33.40;14.43;;;;;;;-0.35;80.12;102306.59;124578;1105;101901;-76
2023/01/24 13:52:38;;;;;;;30.23;12.63;;;;;;;-0.26;80.00;102311.84;124841;1102;102757;-75
2023/01/24 13:55:40;;;;;;;31.17;13.97;;;;;;;-0.24;79.88;102313.81;125008;1101;102807;-77
2023/01/24 13:58:23;;;;;;;37.33;15.70;;;;;;;-0.14;79.96;102310.58;125024;1102;104163;-77
2023/01/24 14:01:02;;;;;;;38.67;17.17;;;;;;;-0.04;80.42;102309.89;124792;1102;103106;-77
2023/01/24 14:03:37;;;;;;;32.67;13.90;;;;;;;0.06;80.28;102315.27;124939;1102;104406;-78
2023/01/24 14:06:17;;;;;;;35.87;15.33;;;;;;;0.11;79.96;102313.17;124937;1102;102998;-78
2023/01/24 14:09:13;;;;;;;36.67;15.07;;;;;;;0.18;79.98;102318.25;125152;1102;102205;-81
2023/01/24 14:12:04;;;;;;;32.70;14.40;;;;;;;0.12;79.82;102309.86;124920;1102;102923;-76
2023/01/24 14:14:58;;;;;;;35.90;14.93;;;;;;;0.04;80.01;102313.30;125662;1099;104188;-76
2023/01/24 14:17:48;;;;;;;33.33;15.10;;;;;;;0.07;79.99;102316.20;125651;1099;103667;-80
2023/01/24 14:20:44;;;;;;;35.90;15.57;;;;;;;0.11;80.49;102313.17;125724;1098;101827;-78
2023/01/24 14:23:30;;;;;;;32.57;13.53;;;;;;;0.08;79.83;102320.59;125675;1098;103254;-78
2023/01/24 14:26:05;;;;;;;34.77;14.43;;;;;;;0.04;79.72;102310.72;125638;1099;101923;-77
2023/01/24 14:28:46;;;;;;;31.40;13.50;;;;;;;0.00;80.13;102319.80;125667;1099;104153;-79
2023/01/24 14:31:24;;;;;;;32.47;14.30;;;;;;;-0.07;80.20;102312.14;125526;1099;104232;-78
2023/01/24 14:34:04;;;;;;;35.03;13.90;;;;;;;-0.14;80.55;102319.97;125429;1099;104346;-78
2023/01/24 14:36:45;;;;;;;32.13;14.37;;;;;;;-0.20;80.80;102310.83;125606;1099;104259;-79
2023/01/24 14:39:22;;;;;;;35.30;15.27;;;;;;;-0.20;80.43;102313.41;125508;1099;102132;-79
2023/01/24 14:42:00;;;;;;;32.33;14.50;;;;;;;-0.15;80.80;102313.90;125489;1099;102039;-79
2023/01/24 14:44:34;;;;;;;38.00;16.73;;;;;;;-0.10;80.94;102307.56;125485;1099;102551;-80
2023/01/24 14:47:17;;;;;;;33.77;15.00;;;;;;;-0.02;80.50;102316.12;125368;1099;102459;-79
2023/01/24 14:49:55;;;;;;;32.63;14.27;;;;;;;0.00;80.46;102317.23;124965;1099;102973;-79
2023/01/24 14:52:29;;;;;;;30.48;15.05;;;;;;;-0.02;80.99;102323.87;125330;1099;102407;-79
2023/01/24 14:55:02;;;;;;;36.47;14.03;;;;;;;0.02;80.40;102323.45;125462;1099;102262;-78
2023/01/24 14:57:35;;;;;;;34.53;13.88;;;;;;;0.05;80.47;102339.27;125467;1099;102676;-79
2023/01/24 15:00:18;;;;;;;35.52;15.00;;;;;;;0.04;80.17;102337.43;125570;1099;104165;-80
2023/01/24 15:02:58;;;;;;;31.60;15.17;;;;;;;0.06;80.46;102332.44;125564;1099;103519;-78
2023/01/24 15:05:33;;;;;;;36.50;15.93;;;;;;;0.11;80.86;102337.34;125528;1098;103211;-78
2023/01/24 15:08:15;;;;;;;33.30;14.58;;;;;;;0.14;80.38;102336.73;125154;1099;103129;-77
2023/01/24 15:10:53;;;;;;;32.13;13.70;;;;;;;0.07;80.61;102342.92;125494;1099;103884;-79
2023/01/24 15:13:30;;;;;;;29.10;13.97;;;;;;;0.07;80.95;102340.34;125122;1099;103011;-80
2023/01/24 15:16:05;;;;;;;34.87;14.40;;;;;;;0.10;80.79;102340.67;125652;1099;102811;-79
2023/01/24 15:18:43;;;;;;;35.93;14.70;;;;;;;0.14;80.49;102339.32;125165;1099;102591;-78
2023/01/24 15:21:28;;;;;;;32.93;15.10;;;;;;;0.22;81.09;102338.50;126831;1098;101850;-79
2023/01/24 15:24:03;;;;;;;40.07;16.30;;;;;;;0.25;80.74;102336.23;126757;1098;102068;-78
2023/01/24 15:26:47;;;;;;;35.97;16.03;;;;;;;0.24;80.59;102341.24;126829;1098;102497;-78
2023/01/24 15:29:46;;;;;;;33.00;15.20;;;;;;;0.25;81.15;102338.83;126907;1098;102116;-77